createdAt,value
2023-04-06T00:00:24.463Z,99594.00
2023-04-06T00:01:57.679Z,99588.00
2023-04-06T00:03:31.247Z,99592.00
2023-04-06T00:05:05.253Z,99592.00
2023-04-06T00:06:39.794Z,99583.00
2023-04-06T00:08:13.042Z,99580.00
2023-04-06T00:09:45.766Z,99589.00
2023-04-06T00:11:19.083Z,99594.00
2023-04-06T00:12:51.321Z,99588.00
2023-04-06T00:14:24.507Z,99594.00
2023-04-06T00:15:57.826Z,99576.00
2023-04-06T00:17:31.306Z,99587.00
2023-04-06T00:19:04.669Z,99579.00
2023-04-06T00:20:37.996Z,99589.00
2023-04-06T00:22:11.826Z,99580.00
2023-04-06T00:23:45.116Z,99583.00
2023-04-06T00:25:17.570Z,99583.00
2023-04-06T00:26:50.720Z,99577.00
2023-04-06T00:28:26.623Z,99581.00
2023-04-06T00:29:59.889Z,99568.00
2023-04-06T00:31:32.194Z,99582.00
2023-04-06T00:33:05.817Z,99571.00
2023-04-06T00:34:39.080Z,99569.00
2023-04-06T00:36:11.471Z,99570.00
2023-04-06T00:37:48.916Z,99573.00
2023-04-06T00:39:21.363Z,99574.00
2023-04-06T00:40:54.723Z,99577.00
2023-04-06T00:42:27.145Z,99564.00
2023-04-06T00:44:00.581Z,99565.00
2023-04-06T00:45:34.448Z,99556.00
2023-04-06T00:47:06.898Z,99556.00
2023-04-06T00:48:41.662Z,99552.00
2023-04-06T00:50:14.977Z,99550.00
2023-04-06T00:51:48.169Z,99552.00
2023-04-06T00:53:22.808Z,99536.00
2023-04-06T00:54:56.617Z,99548.00
2023-04-06T00:56:29.109Z,99546.00
2023-04-06T00:58:02.580Z,99543.00
2023-04-06T00:59:41.263Z,99536.00
2023-04-06T01:01:25.832Z,99537.00
2023-04-06T01:03:00.750Z,99545.00
2023-04-06T01:04:41.876Z,99533.00
2023-04-06T01:06:19.770Z,99538.00
2023-04-06T01:08:02.242Z,99532.00
2023-04-06T01:09:37.601Z,99527.00
2023-04-06T01:11:15.895Z,99533.00
2023-04-06T01:12:49.146Z,99536.00
2023-04-06T01:14:29.476Z,99531.00
2023-04-06T01:16:07.657Z,99528.00
2023-04-06T01:17:56.852Z,99526.00
2023-04-06T01:19:29.626Z,99522.00
2023-04-06T01:21:03.529Z,99515.00
2023-04-06T01:22:38.317Z,99525.00
2023-04-06T01:24:12.334Z,99520.00
2023-04-06T01:26:06.208Z,99514.00
2023-04-06T01:27:39.521Z,99514.00
2023-04-06T01:29:18.652Z,99514.00
2023-04-06T01:30:51.920Z,99502.00
2023-04-06T01:32:43.781Z,99507.00
2023-04-06T01:34:22.290Z,99509.00
2023-04-06T01:35:54.729Z,99505.00
2023-04-06T01:37:28.156Z,99504.00
2023-04-06T01:39:05.442Z,99505.00
2023-04-06T01:40:41.613Z,99499.00
2023-04-06T01:42:15.891Z,99503.00
2023-04-06T01:43:49.661Z,99507.00
2023-04-06T01:45:23.362Z,99497.00
2023-04-06T01:46:58.569Z,99503.00
2023-04-06T01:48:31.052Z,99493.00
2023-04-06T01:50:07.074Z,99497.00
2023-04-06T01:51:44.316Z,99496.00
2023-04-06T01:53:18.809Z,99494.00
2023-04-06T01:54:54.464Z,99495.00
2023-04-06T01:56:40.840Z,99498.00
2023-04-06T01:58:40.408Z,99492.00
2023-04-06T02:00:15.608Z,99497.00
2023-04-06T02:01:53.255Z,99502.00
2023-04-06T02:03:26.109Z,99493.00
2023-04-06T02:05:08.483Z,99491.00
2023-04-06T02:06:44.024Z,99498.00
2023-04-06T02:08:19.298Z,99483.00
2023-04-06T02:09:56.452Z,99485.00
2023-04-06T02:11:36.347Z,99491.00
2023-04-06T02:13:08.824Z,99479.00
2023-04-06T02:14:43.001Z,99484.00
2023-04-06T02:16:16.819Z,99480.00
2023-04-06T02:17:51.758Z,99485.00
2023-04-06T02:19:24.979Z,99486.00
2023-04-06T02:20:58.223Z,99488.00
2023-04-06T02:22:31.390Z,99485.00
2023-04-06T02:24:04.786Z,99490.00
2023-04-06T02:25:39.425Z,99483.00
2023-04-06T02:27:12.157Z,99488.00
2023-04-06T02:28:45.450Z,99496.00
2023-04-06T02:30:17.663Z,99475.00
2023-04-06T02:31:51.387Z,99484.00
2023-04-06T02:33:24.848Z,99488.00
2023-04-06T02:34:58.190Z,99479.00
2023-04-06T02:36:32.325Z,99477.00
2023-04-06T02:38:05.980Z,99477.00
2023-04-06T02:39:38.262Z,99484.00
2023-04-06T02:41:16.125Z,99480.00
2023-04-06T02:42:49.471Z,99477.00
2023-04-06T02:44:26.216Z,99486.00
2023-04-06T02:45:59.507Z,99482.00
2023-04-06T02:47:33.146Z,99481.00
2023-04-06T02:49:06.770Z,99474.00
2023-04-06T02:50:41.518Z,99476.00
2023-04-06T02:52:15.364Z,99483.00
2023-04-06T02:53:47.784Z,99482.00
2023-04-06T02:55:22.476Z,99469.00
2023-04-06T02:56:57.708Z,99472.00
2023-04-06T02:58:39.023Z,99476.00
2023-04-06T03:00:14.120Z,99470.00
2023-04-06T03:01:48.738Z,99466.00
2023-04-06T03:03:22.266Z,99471.00
2023-04-06T03:04:56.352Z,99467.00
2023-04-06T03:06:34.842Z,99471.00
2023-04-06T03:08:17.627Z,99470.00
2023-04-06T03:09:51.704Z,99478.00
2023-04-06T03:11:25.083Z,99471.00
2023-04-06T03:13:00.938Z,99467.00
2023-04-06T03:14:49.096Z,99466.00
2023-04-06T03:16:23.002Z,99468.00
2023-04-06T03:18:00.108Z,99460.00
2023-04-06T03:19:41.684Z,99462.00
2023-04-06T03:21:17.076Z,99465.00
2023-04-06T03:22:54.746Z,99458.00
2023-04-06T03:24:32.265Z,99462.00
2023-04-06T03:26:05.910Z,99473.00
2023-04-06T03:27:38.309Z,99468.00
2023-04-06T03:29:14.798Z,99468.00
2023-04-06T03:30:48.289Z,99470.00
2023-04-06T03:32:24.115Z,99472.00
2023-04-06T03:33:58.155Z,99463.00
2023-04-06T03:35:42.435Z,99471.00
2023-04-06T03:37:15.921Z,99468.00
2023-04-06T03:38:55.197Z,99461.00
2023-04-06T03:40:28.496Z,99467.00
2023-04-06T03:42:01.658Z,99466.00
2023-04-06T03:43:49.999Z,99461.00
2023-04-06T03:45:25.904Z,99472.00
2023-04-06T03:46:58.237Z,99462.00
2023-04-06T03:48:32.469Z,99474.00
2023-04-06T03:50:10.660Z,99460.00
2023-04-06T03:51:42.910Z,99466.00
2023-04-06T03:53:16.378Z,99465.00
2023-04-06T03:54:48.850Z,99471.00
2023-04-06T03:56:22.212Z,99471.00
2023-04-06T03:57:55.414Z,99472.00
2023-04-06T03:59:28.756Z,99470.00
2023-04-06T04:01:02.408Z,99468.00
2023-04-06T04:02:35.775Z,99464.00
2023-04-06T04:04:09.118Z,99460.00
2023-04-06T04:05:42.321Z,99464.00
2023-04-06T04:07:15.230Z,99467.00
2023-04-06T04:08:48.447Z,99468.00
2023-04-06T04:10:20.674Z,99468.00
2023-04-06T04:11:53.849Z,99465.00
2023-04-06T04:13:28.311Z,99470.00
2023-04-06T04:15:01.680Z,99472.00
2023-04-06T04:16:36.323Z,99470.00
2023-04-06T04:18:09.718Z,99472.00
2023-04-06T04:19:42.950Z,99480.00
2023-04-06T04:21:16.597Z,99468.00
2023-04-06T04:22:49.868Z,99472.00
2023-04-06T04:24:23.314Z,99473.00
2023-04-06T04:25:56.900Z,99469.00
2023-04-06T04:27:30.181Z,99479.00
2023-04-06T04:29:02.626Z,99473.00
2023-04-06T04:30:36.115Z,99468.00
2023-04-06T04:32:15.821Z,99469.00
2023-04-06T04:33:49.273Z,99468.00
2023-04-06T04:35:29.033Z,99462.00
2023-04-06T04:37:02.627Z,99471.00
2023-04-06T04:38:56.144Z,99475.00
2023-04-06T04:40:30.111Z,99466.00
2023-04-06T04:42:11.707Z,99464.00
2023-04-06T04:43:50.689Z,99467.00
2023-04-06T04:45:28.580Z,99470.00
2023-04-06T04:47:02.624Z,99469.00
2023-04-06T04:48:47.529Z,99472.00
2023-04-06T04:50:20.999Z,99473.00
2023-04-06T04:51:57.603Z,99468.00
2023-04-06T04:53:37.998Z,99464.00
2023-04-06T04:55:22.621Z,99463.00
2023-04-06T04:56:59.959Z,99469.00
2023-04-06T04:58:44.581Z,99456.00
2023-04-06T05:00:19.346Z,99470.00
2023-04-06T05:01:55.587Z,99468.00
2023-04-06T05:03:40.685Z,99470.00
2023-04-06T05:05:19.579Z,99467.00
2023-04-06T05:06:52.839Z,99468.00
2023-04-06T05:08:26.646Z,99467.00
2023-04-06T05:09:58.993Z,99468.00
2023-04-06T05:11:36.237Z,99466.00
2023-04-06T05:13:10.495Z,99463.00
2023-04-06T05:14:43.967Z,99461.00
2023-04-06T05:16:20.587Z,99469.00
2023-04-06T05:17:54.229Z,99459.00
2023-04-06T05:19:32.563Z,99470.00
2023-04-06T05:21:07.494Z,99465.00
2023-04-06T05:23:04.047Z,99467.00
2023-04-06T05:24:37.723Z,99468.00
2023-04-06T05:26:13.584Z,99458.00
2023-04-06T05:27:46.870Z,99468.00
2023-04-06T05:29:33.087Z,99470.00
2023-04-06T05:31:06.599Z,99468.00
2023-04-06T05:32:49.679Z,99466.00
2023-04-06T05:34:23.856Z,99468.00
2023-04-06T05:35:58.018Z,99468.00
2023-04-06T05:37:32.802Z,99470.00
2023-04-06T05:39:07.029Z,99469.00
2023-04-06T05:40:45.460Z,99463.00
2023-04-06T05:42:22.152Z,99470.00
2023-04-06T05:43:58.665Z,99469.00
2023-04-06T05:45:32.771Z,99472.00
2023-04-06T05:47:06.374Z,99465.00
2023-04-06T05:48:39.745Z,99464.00
2023-04-06T05:50:13.847Z,99464.00
2023-04-06T05:51:47.644Z,99467.00
2023-04-06T05:53:22.936Z,99471.00
2023-04-06T05:55:01.676Z,99457.00
2023-04-06T05:56:35.583Z,99468.00
2023-04-06T05:58:09.777Z,99466.00
2023-04-06T05:59:42.036Z,99467.00
2023-04-06T06:01:16.720Z,99457.00
2023-04-06T06:02:53.072Z,99454.00
2023-04-06T06:04:30.664Z,99466.00
2023-04-06T06:06:05.650Z,99469.00
2023-04-06T06:07:52.096Z,99463.00
2023-04-06T06:09:27.015Z,99465.00
2023-04-06T06:11:15.528Z,99468.00
2023-04-06T06:12:49.083Z,99465.00
2023-04-06T06:14:23.725Z,99465.00
2023-04-06T06:15:56.948Z,99468.00
2023-04-06T06:17:30.626Z,99464.00
2023-04-06T06:19:04.113Z,99456.00
2023-04-06T06:20:38.310Z,99455.00
2023-04-06T06:22:12.630Z,99456.00
2023-04-06T06:23:50.338Z,99454.00
2023-04-06T06:25:27.921Z,99455.00
2023-04-06T06:27:01.249Z,99454.00
2023-04-06T06:28:37.092Z,99460.00
2023-04-06T06:30:11.654Z,99454.00
2023-04-06T06:31:47.748Z,99457.00
2023-04-06T06:33:21.100Z,99460.00
2023-04-06T06:34:56.528Z,99452.00
2023-04-06T06:36:31.557Z,99453.00
2023-04-06T06:38:07.793Z,99460.00
2023-04-06T06:39:41.093Z,99460.00
2023-04-06T06:41:15.877Z,99460.00
2023-04-06T06:42:49.252Z,99450.00
2023-04-06T06:44:29.018Z,99457.00
2023-04-06T06:46:02.802Z,99451.00
2023-04-06T06:47:36.342Z,99446.00
2023-04-06T06:49:09.595Z,99446.00
2023-04-06T06:50:42.875Z,99444.00
2023-04-06T06:52:16.171Z,99451.00
2023-04-06T06:53:50.727Z,99446.00
2023-04-06T06:55:24.060Z,99443.00
2023-04-06T06:56:58.592Z,99440.00
2023-04-06T06:58:31.941Z,99447.00
2023-04-06T07:00:09.418Z,99445.00
2023-04-06T07:01:43.998Z,99445.00
2023-04-06T07:03:17.417Z,99440.00
2023-04-06T07:04:50.744Z,99442.00
2023-04-06T07:06:24.369Z,99440.00
2023-04-06T07:07:58.586Z,99438.00
2023-04-06T07:09:33.187Z,99433.00
2023-04-06T07:11:06.791Z,99440.00
2023-04-06T07:12:41.381Z,99429.00
2023-04-06T07:14:15.498Z,99434.00
2023-04-06T07:15:48.716Z,99424.00
2023-04-06T07:17:22.116Z,99426.00
2023-04-06T07:18:55.412Z,99420.00
2023-04-06T07:20:30.062Z,99434.00
2023-04-06T07:22:04.246Z,99419.00
2023-04-06T07:23:37.793Z,99420.00
2023-04-06T07:25:11.677Z,99419.00
2023-04-06T07:26:44.934Z,99420.00
2023-04-06T07:28:19.978Z,99421.00
2023-04-06T07:29:53.260Z,99420.00
2023-04-06T07:31:27.239Z,99409.00
2023-04-06T07:33:01.333Z,99424.00
2023-04-06T07:34:35.333Z,99427.00
2023-04-06T07:36:08.685Z,99419.00
2023-04-06T07:37:42.095Z,99416.00
2023-04-06T07:39:15.650Z,99420.00
2023-04-06T07:40:49.147Z,99408.00
2023-04-06T07:42:29.800Z,99404.00
2023-04-06T07:44:05.105Z,99409.00
2023-04-06T07:45:38.587Z,99410.00
2023-04-06T07:47:13.195Z,99406.00
2023-04-06T07:48:46.729Z,99411.00
2023-04-06T07:50:20.246Z,99404.00
2023-04-06T07:51:54.208Z,99396.00
2023-04-06T07:53:27.570Z,99406.00
2023-04-06T07:55:00.950Z,99401.00
2023-04-06T07:56:34.272Z,99395.00
2023-04-06T07:58:07.628Z,99402.00
2023-04-06T07:59:42.157Z,99394.00
2023-04-06T08:01:15.542Z,99392.00
2023-04-06T08:02:48.994Z,99393.00
2023-04-06T08:04:22.792Z,99393.00
2023-04-06T08:05:56.237Z,99391.00
2023-04-06T08:07:29.589Z,99384.00
2023-04-06T08:09:02.774Z,99388.00
2023-04-06T08:10:36.391Z,99388.00
2023-04-06T08:12:09.616Z,99393.00
2023-04-06T08:13:42.838Z,99385.00
2023-04-06T08:15:19.046Z,99393.00
2023-04-06T08:16:52.486Z,99392.00
2023-04-06T08:18:25.669Z,99395.00
2023-04-06T08:19:58.946Z,99390.00
2023-04-06T08:21:32.151Z,99393.00
2023-04-06T08:23:05.374Z,99387.00
2023-04-06T08:24:38.630Z,99389.00
2023-04-06T08:26:12.031Z,99391.00
2023-04-06T08:27:45.256Z,99381.00
2023-04-06T08:29:18.839Z,99391.00
2023-04-06T08:30:53.489Z,99401.00
2023-04-06T08:32:28.280Z,99388.00
2023-04-06T08:34:01.632Z,99390.00
2023-04-06T08:35:35.334Z,99382.00
2023-04-06T08:37:09.147Z,99388.00
2023-04-06T08:38:43.857Z,99377.00
2023-04-06T08:40:17.345Z,99380.00
2023-04-06T08:41:52.812Z,99385.00
2023-04-06T08:43:29.414Z,99382.00
2023-04-06T08:45:03.270Z,99376.00
2023-04-06T08:46:38.020Z,99365.00
2023-04-06T08:48:13.617Z,99374.00
2023-04-06T08:49:48.085Z,99370.00
2023-04-06T08:51:22.244Z,99378.00
2023-04-06T08:52:56.826Z,99372.00
2023-04-06T08:54:30.018Z,99377.00
2023-04-06T08:56:05.071Z,99369.00
2023-04-06T08:57:38.720Z,99383.00
2023-04-06T08:59:13.003Z,99370.00
2023-04-06T09:00:46.527Z,99379.00
2023-04-06T09:02:22.180Z,99372.00
2023-04-06T09:03:59.451Z,99379.00
2023-04-06T09:05:33.273Z,99380.00
2023-04-06T09:07:07.518Z,99370.00
2023-04-06T09:08:42.516Z,99377.00
2023-04-06T09:10:16.754Z,99373.00
2023-04-06T09:11:52.772Z,99378.00
2023-04-06T09:13:26.065Z,99379.00
2023-04-06T09:15:00.676Z,99375.00
2023-04-06T09:16:42.568Z,99375.00
2023-04-06T09:18:30.809Z,99383.00
2023-04-06T09:20:05.687Z,99377.00
2023-04-06T09:21:38.837Z,99383.00
2023-04-06T09:23:20.488Z,99369.00
2023-04-06T09:24:55.547Z,99370.00
2023-04-06T09:26:28.892Z,99363.00
2023-04-06T09:28:04.769Z,99375.00
2023-04-06T09:29:38.487Z,99362.00
2023-04-06T09:31:11.963Z,99355.00
2023-04-06T09:32:51.791Z,99355.00
2023-04-06T09:34:26.413Z,99361.00
2023-04-06T09:35:59.922Z,99356.00
2023-04-06T09:37:33.176Z,99354.00
2023-04-06T09:39:07.267Z,99359.00
2023-04-06T09:41:00.885Z,99359.00
2023-04-06T09:42:36.218Z,99365.00
2023-04-06T09:44:11.117Z,99361.00
2023-04-06T09:45:44.724Z,99354.00
2023-04-06T09:47:19.919Z,99355.00
2023-04-06T09:48:54.750Z,99357.00
2023-04-06T09:50:29.886Z,99362.00
2023-04-06T09:52:05.919Z,99355.00
2023-04-06T09:53:43.814Z,99362.00
2023-04-06T09:55:28.011Z,99357.00
2023-04-06T09:57:14.873Z,99359.00
2023-04-06T09:58:54.173Z,99364.00
2023-04-06T10:00:30.617Z,99363.00
2023-04-06T10:02:08.109Z,99360.00
2023-04-06T10:03:54.277Z,99353.00
2023-04-06T10:05:35.632Z,99358.00
2023-04-06T10:07:12.722Z,99363.00
2023-04-06T10:08:51.580Z,99361.00
2023-04-06T10:10:24.966Z,99366.00
2023-04-06T10:12:00.217Z,99355.00
2023-04-06T10:13:33.389Z,99359.00
2023-04-06T10:15:07.802Z,99361.00
2023-04-06T10:16:41.342Z,99360.00
2023-04-06T10:18:16.034Z,99365.00
2023-04-06T10:19:56.874Z,99365.00
2023-04-06T10:21:34.133Z,99356.00
2023-04-06T10:23:16.414Z,99363.00
2023-04-06T10:24:49.648Z,99366.00
2023-04-06T10:26:23.941Z,99360.00
2023-04-06T10:28:02.615Z,99364.00
2023-04-06T10:29:46.280Z,99368.00
2023-04-06T10:31:28.104Z,99355.00
2023-04-06T10:33:01.729Z,99361.00
2023-04-06T10:34:37.350Z,99359.00
2023-04-06T10:36:15.535Z,99366.00
2023-04-06T10:37:54.510Z,99369.00
2023-04-06T10:39:28.799Z,99354.00
2023-04-06T10:41:07.349Z,99359.00
2023-04-06T10:42:40.724Z,99355.00
2023-04-06T10:44:22.326Z,99358.00
2023-04-06T10:46:01.526Z,99354.00
2023-04-06T10:47:42.061Z,99350.00
2023-04-06T10:49:15.275Z,99354.00
2023-04-06T10:50:51.126Z,99356.00
2023-04-06T10:52:25.746Z,99356.00
2023-04-06T10:54:01.390Z,99347.00
2023-04-06T10:55:36.629Z,99354.00
2023-04-06T10:57:09.842Z,99352.00
2023-04-06T10:58:47.642Z,99342.00
2023-04-06T11:00:22.220Z,99348.00
2023-04-06T11:01:56.714Z,99340.00
2023-04-06T11:03:30.393Z,99336.00
2023-04-06T11:05:03.462Z,99344.00
2023-04-06T11:06:37.000Z,99346.00
2023-04-06T11:08:10.166Z,99345.00
2023-04-06T11:09:52.796Z,99345.00
2023-04-06T11:11:33.846Z,99337.00
2023-04-06T11:13:08.662Z,99338.00
2023-04-06T11:14:42.560Z,99343.00
2023-04-06T11:16:18.004Z,99348.00
2023-04-06T11:17:52.081Z,99344.00
2023-04-06T11:19:25.492Z,99348.00
2023-04-06T11:20:58.718Z,99343.00
2023-04-06T11:22:33.201Z,99339.00
2023-04-06T11:24:11.766Z,99341.00
2023-04-06T11:25:54.103Z,99336.00
2023-04-06T11:27:32.483Z,99341.00
2023-04-06T11:29:06.417Z,99346.00
2023-04-06T11:30:40.186Z,99346.00
2023-04-06T11:32:21.587Z,99336.00
2023-04-06T11:33:58.640Z,99338.00
2023-04-06T11:35:34.621Z,99332.00
2023-04-06T11:37:12.238Z,99330.00
2023-04-06T11:38:45.466Z,99332.00
2023-04-06T11:40:25.637Z,99328.00
2023-04-06T11:42:04.477Z,99332.00
2023-04-06T11:43:38.841Z,99327.00
2023-04-06T11:45:17.707Z,99324.00
2023-04-06T11:46:59.145Z,99331.00
2023-04-06T11:48:33.229Z,99328.00
2023-04-06T11:50:11.565Z,99327.00
2023-04-06T11:51:44.717Z,99334.00
2023-04-06T11:53:17.884Z,99313.00
2023-04-06T11:54:53.486Z,99317.00
2023-04-06T11:56:30.161Z,99314.00
2023-04-06T11:58:04.649Z,99322.00
2023-04-06T11:59:38.115Z,99318.00
2023-04-06T12:01:11.322Z,99314.00
2023-04-06T12:02:49.048Z,99322.00
2023-04-06T12:04:23.017Z,99316.00
2023-04-06T12:05:57.572Z,99320.00
2023-04-06T12:07:32.435Z,99321.00
2023-04-06T12:09:05.882Z,99319.00
2023-04-06T12:10:39.234Z,99307.00
2023-04-06T12:12:12.428Z,99317.00
2023-04-06T12:13:46.888Z,99304.00
2023-04-06T12:15:20.233Z,99297.00
2023-04-06T12:16:53.423Z,99326.00
2023-04-06T12:18:26.583Z,99313.00
2023-04-06T12:20:05.253Z,99308.00
2023-04-06T12:21:39.258Z,99315.00
2023-04-06T12:23:12.460Z,99325.00
2023-04-06T12:24:45.670Z,99307.00
2023-04-06T12:26:18.799Z,99306.00
2023-04-06T12:27:51.945Z,99311.00
2023-04-06T12:29:26.648Z,99293.00
2023-04-06T12:30:59.733Z,99296.00
2023-04-06T12:32:32.948Z,99295.00
2023-04-06T12:34:06.847Z,99297.00
2023-04-06T12:35:40.648Z,99299.00
2023-04-06T12:37:13.749Z,99307.00
2023-04-06T12:38:48.536Z,99298.00
2023-04-06T12:40:22.114Z,99308.00
2023-04-06T12:41:56.239Z,99298.00
2023-04-06T12:43:29.576Z,99305.00
2023-04-06T12:45:04.390Z,99294.00
2023-04-06T12:46:37.390Z,99290.00
2023-04-06T12:48:10.727Z,99295.00
2023-04-06T12:49:43.852Z,99296.00
2023-04-06T12:51:18.491Z,99294.00
2023-04-06T12:52:51.642Z,99296.00
2023-04-06T12:54:26.402Z,99296.00
2023-04-06T12:56:01.423Z,99299.00
2023-04-06T12:57:34.935Z,99294.00
2023-04-06T12:59:08.273Z,99284.00
2023-04-06T13:00:42.920Z,99284.00
2023-04-06T13:02:17.046Z,99279.00
2023-04-06T13:03:51.499Z,99271.00
2023-04-06T13:05:25.527Z,99274.00
2023-04-06T13:06:59.619Z,99274.00
2023-04-06T13:08:33.129Z,99270.00
2023-04-06T13:10:07.754Z,99283.00
2023-04-06T13:11:42.283Z,99275.00
2023-04-06T13:13:16.122Z,99267.00
2023-04-06T13:14:52.164Z,99280.00
2023-04-06T13:16:26.719Z,99265.00
2023-04-06T13:18:00.013Z,99275.00
2023-04-06T13:19:33.559Z,99276.00
2023-04-06T13:21:07.405Z,99269.00
2023-04-06T13:22:40.586Z,99279.00
2023-04-06T13:24:15.503Z,99279.00
2023-04-06T13:25:49.546Z,99275.00
2023-04-06T13:27:22.684Z,99275.00
2023-04-06T13:28:57.354Z,99276.00
2023-04-06T13:30:30.793Z,99275.00
2023-04-06T13:32:06.024Z,99279.00
2023-04-06T13:33:40.501Z,99274.00
2023-04-06T13:35:13.949Z,99271.00
2023-04-06T13:36:47.084Z,99273.00
2023-04-06T13:38:20.408Z,99266.00
2023-04-06T13:39:53.720Z,99280.00
2023-04-06T13:41:27.803Z,99283.00
2023-04-06T13:43:00.919Z,99278.00
2023-04-06T13:44:34.249Z,99279.00
2023-04-06T13:46:07.451Z,99277.00
2023-04-06T13:47:42.348Z,99278.00
2023-04-06T13:49:16.351Z,99289.00
2023-04-06T13:50:49.540Z,99278.00
2023-04-06T13:52:22.712Z,99282.00
2023-04-06T13:53:56.044Z,99288.00
2023-04-06T13:55:29.352Z,99279.00
2023-04-06T13:57:02.542Z,99282.00
2023-04-06T13:58:37.041Z,99274.00
2023-04-06T14:00:13.607Z,99271.00
2023-04-06T14:01:46.821Z,99269.00
2023-04-06T14:03:21.842Z,99274.00
2023-04-06T14:04:55.661Z,99264.00
2023-04-06T14:06:31.858Z,99267.00
2023-04-06T14:08:05.875Z,99272.00
2023-04-06T14:09:39.086Z,99281.00
2023-04-06T14:11:14.232Z,99275.00
2023-04-06T14:12:47.472Z,99273.00
2023-04-06T14:14:21.627Z,99277.00
2023-04-06T14:15:58.496Z,99271.00
2023-04-06T14:17:31.857Z,99269.00
2023-04-06T14:19:06.634Z,99278.00
2023-04-06T14:20:39.995Z,99267.00
2023-04-06T14:22:13.185Z,99277.00
2023-04-06T14:23:47.247Z,99284.00
2023-04-06T14:25:21.178Z,99276.00
2023-04-06T14:26:54.285Z,99272.00
2023-04-06T14:28:28.132Z,99284.00
2023-04-06T14:30:01.910Z,99270.00
2023-04-06T14:31:36.461Z,99276.00
2023-04-06T14:33:09.651Z,99285.00
2023-04-06T14:34:44.420Z,99277.00
2023-04-06T14:36:18.995Z,99280.00
2023-04-06T14:37:52.512Z,99285.00
2023-04-06T14:39:25.618Z,99270.00
2023-04-06T14:40:58.760Z,99273.00
2023-04-06T14:42:32.381Z,99275.00
2023-04-06T14:44:06.530Z,99281.00
2023-04-06T14:45:40.196Z,99276.00
2023-04-06T14:47:16.474Z,99279.00
2023-04-06T14:48:49.943Z,99268.00
2023-04-06T14:50:24.449Z,99278.00
2023-04-06T14:51:58.194Z,99283.00
2023-04-06T14:53:31.821Z,99271.00
2023-04-06T14:55:05.695Z,99272.00
2023-04-06T14:56:39.769Z,99277.00
2023-04-06T14:58:12.900Z,99287.00
2023-04-06T14:59:46.087Z,99285.00
2023-04-06T15:01:20.834Z,99290.00
2023-04-06T15:02:53.983Z,99291.00
2023-04-06T15:04:27.599Z,99288.00
2023-04-06T15:06:02.463Z,99283.00
2023-04-06T15:07:35.795Z,99285.00
2023-04-06T15:09:09.140Z,99286.00
2023-04-06T15:10:42.276Z,99287.00
2023-04-06T15:12:15.710Z,99280.00
2023-04-06T15:13:48.811Z,99290.00
2023-04-06T15:15:22.368Z,99287.00
2023-04-06T15:16:55.465Z,99288.00
2023-04-06T15:18:28.640Z,99290.00
2023-04-06T15:20:01.769Z,99283.00
2023-04-06T15:21:36.334Z,99286.00
2023-04-06T15:23:09.467Z,99285.00
2023-04-06T15:24:42.639Z,99281.00
2023-04-06T15:26:15.736Z,99280.00
2023-04-06T15:27:49.089Z,99281.00
2023-04-06T15:29:22.543Z,99292.00
2023-04-06T15:30:56.394Z,99284.00
2023-04-06T15:32:29.632Z,99289.00
2023-04-06T15:34:02.865Z,99293.00
2023-04-06T15:35:41.236Z,99287.00
2023-04-06T15:37:16.374Z,99285.00
2023-04-06T15:38:49.998Z,99291.00
2023-04-06T15:40:23.902Z,99283.00
2023-04-06T15:41:57.575Z,99290.00
2023-04-06T15:43:31.060Z,99289.00
2023-04-06T15:45:04.381Z,99278.00
2023-04-06T15:46:37.862Z,99279.00
2023-04-06T15:48:11.437Z,99289.00
2023-04-06T15:49:44.720Z,99299.00
2023-04-06T15:51:18.110Z,99296.00
2023-04-06T15:52:52.746Z,99297.00
2023-04-06T15:54:25.971Z,99289.00
2023-04-06T15:56:01.232Z,99296.00
2023-04-06T15:57:35.050Z,99291.00
2023-04-06T15:59:09.548Z,99289.00
2023-04-06T16:00:42.737Z,99289.00
2023-04-06T16:02:16.117Z,99300.00
2023-04-06T16:03:49.468Z,99298.00
2023-04-06T16:05:23.161Z,99293.00
2023-04-06T16:06:56.448Z,99309.00
2023-04-06T16:08:31.006Z,99315.00
2023-04-06T16:10:04.865Z,99309.00
2023-04-06T16:11:38.138Z,99307.00
2023-04-06T16:13:11.705Z,99299.00
2023-04-06T16:14:45.474Z,99309.00
2023-04-06T16:16:18.702Z,99299.00
2023-04-06T16:17:52.551Z,99289.00
2023-04-06T16:19:25.836Z,99298.00
2023-04-06T16:20:59.614Z,99298.00
2023-04-06T16:22:32.860Z,99294.00
2023-04-06T16:24:08.697Z,99286.00
2023-04-06T16:25:42.635Z,99290.00
2023-04-06T16:27:15.808Z,99286.00
2023-04-06T16:28:49.220Z,99295.00
2023-04-06T16:30:24.661Z,99293.00
2023-04-06T16:31:57.826Z,99286.00
2023-04-06T16:33:31.543Z,99281.00
2023-04-06T16:35:05.770Z,99282.00
2023-04-06T16:36:40.961Z,99288.00
2023-04-06T16:38:15.054Z,99286.00
2023-04-06T16:39:49.867Z,99285.00
2023-04-06T16:41:23.538Z,99285.00
2023-04-06T16:42:56.693Z,99283.00
2023-04-06T16:44:30.363Z,99284.00
2023-04-06T16:46:03.598Z,99286.00
2023-04-06T16:47:36.964Z,99289.00
2023-04-06T16:49:10.315Z,99289.00
2023-04-06T16:50:43.697Z,99289.00
2023-04-06T16:52:17.020Z,99290.00
2023-04-06T16:53:50.224Z,99283.00
2023-04-06T16:55:24.907Z,99290.00
2023-04-06T16:56:58.064Z,99291.00
2023-04-06T16:58:31.614Z,99291.00
2023-04-06T17:00:07.257Z,99284.00
2023-04-06T17:01:40.659Z,99296.00
2023-04-06T17:03:13.964Z,99290.00
2023-04-06T17:04:46.340Z,99289.00
2023-04-06T17:06:20.627Z,99293.00
2023-04-06T17:07:54.509Z,99294.00
2023-04-06T17:09:27.707Z,99296.00
2023-04-06T17:11:04.654Z,99296.00
2023-04-06T17:12:38.156Z,99293.00
2023-04-06T17:14:11.331Z,99291.00
2023-04-06T17:15:44.744Z,99293.00
2023-04-06T17:17:18.054Z,99299.00
2023-04-06T17:18:51.172Z,99308.00
2023-04-06T17:20:24.459Z,99313.00
2023-04-06T17:21:57.622Z,99317.00
2023-04-06T17:23:31.057Z,99323.00
2023-04-06T17:25:05.430Z,99322.00
2023-04-06T17:26:40.615Z,99319.00
2023-04-06T17:28:13.802Z,99317.00
2023-04-06T17:29:47.044Z,99326.00
2023-04-06T17:31:20.538Z,99326.00
2023-04-06T17:32:53.850Z,99322.00
2023-04-06T17:34:30.345Z,99321.00
2023-04-06T17:36:03.760Z,99326.00
2023-04-06T17:37:37.804Z,99328.00
2023-04-06T17:39:11.843Z,99328.00
2023-04-06T17:40:45.209Z,99326.00
2023-04-06T17:42:20.064Z,99325.00
2023-04-06T17:43:53.120Z,99337.00
2023-04-06T17:45:26.824Z,99326.00
2023-04-06T17:47:00.725Z,99322.00
2023-04-06T17:48:34.221Z,99325.00
2023-04-06T17:50:08.928Z,99323.00
2023-04-06T17:51:42.768Z,99332.00
2023-04-06T17:53:18.944Z,99328.00
2023-04-06T17:54:52.331Z,99329.00
2023-04-06T17:56:26.413Z,99337.00
2023-04-06T17:58:01.270Z,99327.00
2023-04-06T17:59:34.688Z,99336.00
2023-04-06T18:01:11.157Z,99331.00
2023-04-06T18:02:45.624Z,99334.00
2023-04-06T18:04:19.337Z,99335.00
2023-04-06T18:05:52.926Z,99331.00
2023-04-06T18:07:26.417Z,99338.00
2023-04-06T18:09:00.770Z,99330.00
2023-04-06T18:10:38.319Z,99332.00
2023-04-06T18:12:11.622Z,99336.00
2023-04-06T18:13:46.970Z,99328.00
2023-04-06T18:15:20.223Z,99329.00
2023-04-06T18:16:53.508Z,99333.00
2023-04-06T18:18:28.097Z,99335.00
2023-04-06T18:20:01.320Z,99335.00
2023-04-06T18:21:34.815Z,99340.00
2023-04-06T18:23:08.233Z,99332.00
2023-04-06T18:24:43.320Z,99332.00
2023-04-06T18:26:19.170Z,99333.00
2023-04-06T18:27:52.489Z,99327.00
2023-04-06T18:29:27.241Z,99324.00
2023-04-06T18:31:02.423Z,99325.00
2023-04-06T18:32:36.547Z,99327.00
2023-04-06T18:34:09.893Z,99325.00
2023-04-06T18:35:43.283Z,99324.00